Elkhart Lake, Wisconsin
Current Conditions -  °F | °C
As of 4:53 AM on Friday 24 Oct 2014 (Local Time) from KSBM Reporting Station
Haze Haze  
Wind Chill: 49°   Ceiling: 500
Heat Index: 49°   Visibility: 2.5mi
Dew Point: 48°   Wind: 0mph
Humidity: 97%   Direction: NA
Pressure: 30.03"   Gusts: NA
Location:  43.83°N, 88.02°W
Report Text: KSBM 240953Z AUTO 00000KT 2 1/2SM BR OVC005 09/09 A3003 RMK AO2 SLP171 T00940089 $
Loading
Personal Weather Stations






























Interactive Weather Map New forecast layout! Learn more

10-Day Weather Forecast

Advertisements
Track Severe Weather on mobile